sensor_id;sensor_type;location;lat;lon;timestamp;temperature;humidity
1546;DHT22;766;51.502;9.752;2023-04-19T00:00:07;9.20;99.90
1546;DHT22;766;51.502;9.752;2023-04-19T00:02:35;9.00;99.90
1546;DHT22;766;51.502;9.752;2023-04-19T00:05:05;9.10;99.90
1546;DHT22;766;51.502;9.752;2023-04-19T00:07:33;9.10;99.90
1546;DHT22;766;51.502;9.752;2023-04-19T00:10:02;9.10;99.90
1546;DHT22;766;51.502;9.752;2023-04-19T00:12:30;9.10;99.90
1546;DHT22;766;51.502;9.752;2023-04-19T00:14:59;9.10;99.90
1546;DHT22;766;51.502;9.752;2023-04-19T00:17:28;9.00;99.90
1546;DHT22;766;51.502;9.752;2023-04-19T00:19:56;9.00;99.90
1546;DHT22;766;51.502;9.752;2023-04-19T00:22:25;9.10;99.90
1546;DHT22;766;51.502;9.752;2023-04-19T00:24:53;9.00;99.90
1546;DHT22;766;51.502;9.752;2023-04-19T00:27:22;9.00;99.90
1546;DHT22;766;51.502;9.752;2023-04-19T00:29:56;8.90;99.90
1546;DHT22;766;51.502;9.752;2023-04-19T00:32:30;8.90;99.90
1546;DHT22;766;51.502;9.752;2023-04-19T00:35:06;8.90;99.90
1546;DHT22;766;51.502;9.752;2023-04-19T00:37:40;8.90;99.90
1546;DHT22;766;51.502;9.752;2023-04-19T00:40:18;8.80;99.90
1546;DHT22;766;51.502;9.752;2023-04-19T00:42:49;8.80;99.90
1546;DHT22;766;51.502;9.752;2023-04-19T00:45:21;8.80;99.90
1546;DHT22;766;51.502;9.752;2023-04-19T00:48:07;8.80;99.90
1546;DHT22;766;51.502;9.752;2023-04-19T00:50:38;8.70;99.90
1546;DHT22;766;51.502;9.752;2023-04-19T00:53:08;8.70;99.90
1546;DHT22;766;51.502;9.752;2023-04-19T00:55:40;8.80;99.90
1546;DHT22;766;51.502;9.752;2023-04-19T00:58:38;8.80;99.90
1546;DHT22;766;51.502;9.752;2023-04-19T01:01:23;8.80;99.90
1546;DHT22;766;51.502;9.752;2023-04-19T01:03:55;8.70;99.90
1546;DHT22;766;51.502;9.752;2023-04-19T01:06:44;8.70;99.90
1546;DHT22;766;51.502;9.752;2023-04-19T01:09:42;8.60;99.90
1546;DHT22;766;51.502;9.752;2023-04-19T01:12:19;8.60;99.90
1546;DHT22;766;51.502;9.752;2023-04-19T01:14:55;8.60;99.90
1546;DHT22;766;51.502;9.752;2023-04-19T01:17:29;8.60;99.90
1546;DHT22;766;51.502;9.752;2023-04-19T01:20:10;8.70;99.90
1546;DHT22;766;51.502;9.752;2023-04-19T01:22:51;8.60;99.90
1546;DHT22;766;51.502;9.752;2023-04-19T01:25:33;8.40;99.90
1546;DHT22;766;51.502;9.752;2023-04-19T01:28:05;8.40;99.90
1546;DHT22;766;51.502;9.752;2023-04-19T01:30:51;8.40;99.90
1546;DHT22;766;51.502;9.752;2023-04-19T01:33:24;8.40;99.90
1546;DHT22;766;51.502;9.752;2023-04-19T01:35:55;8.40;99.90
1546;DHT22;766;51.502;9.752;2023-04-19T01:38:32;8.30;99.90
1546;DHT22;766;51.502;9.752;2023-04-19T01:41:07;8.40;99.90
1546;DHT22;766;51.502;9.752;2023-04-19T01:43:55;8.30;99.90
1546;DHT22;766;51.502;9.752;2023-04-19T01:46:24;8.30;99.90
1546;DHT22;766;51.502;9.752;2023-04-19T01:48:55;8.30;99.90
1546;DHT22;766;51.502;9.752;2023-04-19T01:51:32;8.40;99.90
1546;DHT22;766;51.502;9.752;2023-04-19T01:54:25;8.30;99.90
1546;DHT22;766;51.502;9.752;2023-04-19T01:56:56;8.20;99.90
1546;DHT22;766;51.502;9.752;2023-04-19T01:59:32;8.20;99.90
1546;DHT22;766;51.502;9.752;2023-04-19T02:02:06;8.20;99.90
1546;DHT22;766;51.502;9.752;2023-04-19T02:04:36;8.20;99.90
1546;DHT22;766;51.502;9.752;2023-04-19T02:07:07;8.10;99.90
1546;DHT22;766;51.502;9.752;2023-04-19T02:09:42;8.20;99.90
1546;DHT22;766;51.502;9.752;2023-04-19T02:12:15;8.10;99.90
1546;DHT22;766;51.502;9.752;2023-04-19T02:15:10;8.00;99.90
1546;DHT22;766;51.502;9.752;2023-04-19T02:18:17;7.90;99.90
1546;DHT22;766;51.502;9.752;2023-04-19T02:21:11;7.80;99.90
1546;DHT22;766;51.502;9.752;2023-04-19T02:23:44;7.80;99.90
1546;DHT22;766;51.502;9.752;2023-04-19T02:26:21;7.80;99.90
1546;DHT22;766;51.502;9.752;2023-04-19T02:29:00;7.70;99.90
1546;DHT22;766;51.502;9.752;2023-04-19T02:31:32;7.80;99.90
1546;DHT22;766;51.502;9.752;2023-04-19T02:34:01;7.80;99.90
1546;DHT22;766;51.502;9.752;2023-04-19T02:36:29;7.70;99.90
1546;DHT22;766;51.502;9.752;2023-04-19T02:38:57;7.70;99.90
1546;DHT22;766;51.502;9.752;2023-04-19T02:41:27;7.70;99.90
1546;DHT22;766;51.502;9.752;2023-04-19T02:43:56;7.50;99.90
1546;DHT22;766;51.502;9.752;2023-04-19T02:46:26;7.30;99.90
1546;DHT22;766;51.502;9.752;2023-04-19T02:49:09;7.50;99.90
1546;DHT22;766;51.502;9.752;2023-04-19T02:51:51;7.40;99.90
1546;DHT22;766;51.502;9.752;2023-04-19T02:54:23;7.50;99.90
1546;DHT22;766;51.502;9.752;2023-04-19T02:57:00;7.40;99.90
1546;DHT22;766;51.502;9.752;2023-04-19T02:59:30;7.40;99.90
1546;DHT22;766;51.502;9.752;2023-04-19T03:02:11;7.30;99.90
1546;DHT22;766;51.502;9.752;2023-04-19T03:04:42;7.10;99.90
1546;DHT22;766;51.502;9.752;2023-04-19T03:07:15;7.20;99.90
1546;DHT22;766;51.502;9.752;2023-04-19T03:09:46;7.10;99.90
1546;DHT22;766;51.502;9.752;2023-04-19T03:12:26;7.00;99.90
1546;DHT22;766;51.502;9.752;2023-04-19T03:15:52;6.80;99.90
1546;DHT22;766;51.502;9.752;2023-04-19T03:18:20;6.80;99.90
1546;DHT22;766;51.502;9.752;2023-04-19T03:20:49;6.70;99.90
1546;DHT22;766;51.502;9.752;2023-04-19T03:23:17;6.60;99.90
1546;DHT22;766;51.502;9.752;2023-04-19T03:25:45;6.50;99.90
1546;DHT22;766;51.502;9.752;2023-04-19T03:28:14;6.50;99.90
1546;DHT22;766;51.502;9.752;2023-04-19T03:30:42;6.60;99.90
1546;DHT22;766;51.502;9.752;2023-04-19T03:33:12;6.50;99.90
1546;DHT22;766;51.502;9.752;2023-04-19T03:35:40;6.40;99.90
1546;DHT22;766;51.502;9.752;2023-04-19T03:38:09;6.30;99.90
1546;DHT22;766;51.502;9.752;2023-04-19T03:40:37;6.00;99.90
1546;DHT22;766;51.502;9.752;2023-04-19T03:43:06;5.90;99.90
1546;DHT22;766;51.502;9.752;2023-04-19T03:45:34;5.90;99.90
1546;DHT22;766;51.502;9.752;2023-04-19T03:48:03;5.80;99.90
1546;DHT22;766;51.502;9.752;2023-04-19T03:50:32;5.80;99.90
1546;DHT22;766;51.502;9.752;2023-04-19T03:53:02;5.60;99.90
1546;DHT22;766;51.502;9.752;2023-04-19T03:55:31;5.70;99.90
1546;DHT22;766;51.502;9.752;2023-04-19T03:57:59;5.60;99.90
1546;DHT22;766;51.502;9.752;2023-04-19T04:00:27;5.70;99.90
1546;DHT22;766;51.502;9.752;2023-04-19T04:02:55;5.60;99.90
1546;DHT22;766;51.502;9.752;2023-04-19T04:05:26;5.50;99.90
1546;DHT22;766;51.502;9.752;2023-04-19T04:07:56;5.60;99.90
1546;DHT22;766;51.502;9.752;2023-04-19T04:10:25;5.40;99.90
1546;DHT22;766;51.502;9.752;2023-04-19T04:12:53;5.40;99.90
1546;DHT22;766;51.502;9.752;2023-04-19T04:15:21;5.40;99.90
1546;DHT22;766;51.502;9.752;2023-04-19T04:17:50;5.40;99.90
1546;DHT22;766;51.502;9.752;2023-04-19T04:20:18;5.50;99.90
1546;DHT22;766;51.502;9.752;2023-04-19T04:22:47;5.50;99.90
1546;DHT22;766;51.502;9.752;2023-04-19T04:25:20;5.40;99.90
1546;DHT22;766;51.502;9.752;2023-04-19T04:27:55;5.40;99.90
1546;DHT22;766;51.502;9.752;2023-04-19T04:30:34;5.30;99.90
1546;DHT22;766;51.502;9.752;2023-04-19T04:33:07;5.30;99.90
1546;DHT22;766;51.502;9.752;2023-04-19T04:35:37;5.30;99.90
1546;DHT22;766;51.502;9.752;2023-04-19T04:38:07;5.20;99.90
1546;DHT22;766;51.502;9.752;2023-04-19T04:40:52;5.30;99.90
1546;DHT22;766;51.502;9.752;2023-04-19T04:43:21;5.30;99.90
1546;DHT22;766;51.502;9.752;2023-04-19T04:45:50;5.30;99.90
1546;DHT22;766;51.502;9.752;2023-04-19T04:48:21;5.20;99.90
1546;DHT22;766;51.502;9.752;2023-04-19T04:50:50;5.40;99.90
1546;DHT22;766;51.502;9.752;2023-04-19T04:53:18;5.20;99.90
1546;DHT22;766;51.502;9.752;2023-04-19T04:55:47;5.10;99.90
1546;DHT22;766;51.502;9.752;2023-04-19T04:58:16;5.10;99.90
1546;DHT22;766;51.502;9.752;2023-04-19T05:00:46;5.10;99.90
1546;DHT22;766;51.502;9.752;2023-04-19T05:03:15;5.10;99.90
1546;DHT22;766;51.502;9.752;2023-04-19T05:05:43;5.20;99.90
1546;DHT22;766;51.502;9.752;2023-04-19T05:08:12;5.20;99.90
1546;DHT22;766;51.502;9.752;2023-04-19T05:10:40;5.10;99.90
1546;DHT22;766;51.502;9.752;2023-04-19T05:13:09;5.00;99.90
1546;DHT22;766;51.502;9.752;2023-04-19T05:15:39;5.10;99.90
1546;DHT22;766;51.502;9.752;2023-04-19T05:18:07;5.10;99.90
1546;DHT22;766;51.502;9.752;2023-04-19T05:20:36;5.10;99.90
1546;DHT22;766;51.502;9.752;2023-04-19T05:23:04;5.00;99.90
1546;DHT22;766;51.502;9.752;2023-04-19T05:25:33;5.10;99.90
1546;DHT22;766;51.502;9.752;2023-04-19T05:28:01;5.20;99.90
1546;DHT22;766;51.502;9.752;2023-04-19T05:30:30;5.10;99.90
1546;DHT22;766;51.502;9.752;2023-04-19T05:33:00;5.00;99.90
1546;DHT22;766;51.502;9.752;2023-04-19T05:35:29;5.10;99.90
1546;DHT22;766;51.502;9.752;2023-04-19T05:38:00;5.00;99.90
1546;DHT22;766;51.502;9.752;2023-04-19T05:40:28;5.10;99.90
1546;DHT22;766;51.502;9.752;2023-04-19T05:42:59;5.10;99.90
1546;DHT22;766;51.502;9.752;2023-04-19T05:45:28;5.20;99.90
1546;DHT22;766;51.502;9.752;2023-04-19T05:47:57;5.30;99.90
1546;DHT22;766;51.502;9.752;2023-04-19T05:50:27;5.20;99.90
1546;DHT22;766;51.502;9.752;2023-04-19T05:52:55;5.30;99.90
1546;DHT22;766;51.502;9.752;2023-04-19T05:55:24;5.60;99.90
1546;DHT22;766;51.502;9.752;2023-04-19T05:57:52;5.80;99.90
1546;DHT22;766;51.502;9.752;2023-04-19T06:00:22;5.80;99.90
1546;DHT22;766;51.502;9.752;2023-04-19T06:02:50;6.10;99.90
1546;DHT22;766;51.502;9.752;2023-04-19T06:05:18;6.30;99.90
1546;DHT22;766;51.502;9.752;2023-04-19T06:07:49;6.20;99.90
1546;DHT22;766;51.502;9.752;2023-04-19T06:10:27;6.50;99.90
1546;DHT22;766;51.502;9.752;2023-04-19T06:13:16;6.60;99.90
1546;DHT22;766;51.502;9.752;2023-04-19T06:15:46;6.70;99.90
1546;DHT22;766;51.502;9.752;2023-04-19T06:18:14;6.70;99.90
1546;DHT22;766;51.502;9.752;2023-04-19T06:20:47;6.90;99.90
1546;DHT22;766;51.502;9.752;2023-04-19T06:23:17;7.10;99.90
1546;DHT22;766;51.502;9.752;2023-04-19T06:25:46;7.20;99.90
1546;DHT22;766;51.502;9.752;2023-04-19T06:28:15;7.20;99.90
1546;DHT22;766;51.502;9.752;2023-04-19T06:30:43;7.20;99.90
1546;DHT22;766;51.502;9.752;2023-04-19T06:33:11;7.30;99.90
1546;DHT22;766;51.502;9.752;2023-04-19T06:35:39;7.30;99.90
1546;DHT22;766;51.502;9.752;2023-04-19T06:38:11;7.40;99.90
1546;DHT22;766;51.502;9.752;2023-04-19T06:40:41;7.70;99.90
1546;DHT22;766;51.502;9.752;2023-04-19T06:43:09;7.70;99.90
1546;DHT22;766;51.502;9.752;2023-04-19T06:45:38;7.70;99.90
1546;DHT22;766;51.502;9.752;2023-04-19T06:48:07;8.00;99.90
1546;DHT22;766;51.502;9.752;2023-04-19T06:50:36;8.00;99.90
1546;DHT22;766;51.502;9.752;2023-04-19T06:53:04;8.10;99.90
1546;DHT22;766;51.502;9.752;2023-04-19T06:55:33;8.60;99.90
1546;DHT22;766;51.502;9.752;2023-04-19T06:58:03;9.00;99.90
1546;DHT22;766;51.502;9.752;2023-04-19T07:00:33;9.10;99.90
1546;DHT22;766;51.502;9.752;2023-04-19T07:03:03;9.40;99.90
1546;DHT22;766;51.502;9.752;2023-04-19T07:05:33;9.10;99.90
1546;DHT22;766;51.502;9.752;2023-04-19T07:08:03;9.30;99.90
1546;DHT22;766;51.502;9.752;2023-04-19T07:10:32;9.70;99.90
1546;DHT22;766;51.502;9.752;2023-04-19T07:13:00;9.90;99.90
1546;DHT22;766;51.502;9.752;2023-04-19T07:15:30;9.80;99.90
1546;DHT22;766;51.502;9.752;2023-04-19T07:17:59;9.90;99.90
1546;DHT22;766;51.502;9.752;2023-04-19T07:20:30;9.80;99.90
1546;DHT22;766;51.502;9.752;2023-04-19T07:22:58;10.00;99.90
1546;DHT22;766;51.502;9.752;2023-04-19T07:25:27;10.50;99.90
1546;DHT22;766;51.502;9.752;2023-04-19T07:27:55;10.90;99.90
1546;DHT22;766;51.502;9.752;2023-04-19T07:30:24;11.40;99.90
1546;DHT22;766;51.502;9.752;2023-04-19T07:32:54;11.30;99.90
1546;DHT22;766;51.502;9.752;2023-04-19T07:35:23;11.80;99.90
1546;DHT22;766;51.502;9.752;2023-04-19T07:37:52;11.70;99.90
1546;DHT22;766;51.502;9.752;2023-04-19T07:40:23;12.40;99.90
1546;DHT22;766;51.502;9.752;2023-04-19T07:42:54;12.80;99.90
1546;DHT22;766;51.502;9.752;2023-04-19T07:45:22;12.30;99.90
1546;DHT22;766;51.502;9.752;2023-04-19T07:47:51;12.50;99.90
1546;DHT22;766;51.502;9.752;2023-04-19T07:50:21;12.80;99.90
1546;DHT22;766;51.502;9.752;2023-04-19T07:52:49;13.20;99.90
1546;DHT22;766;51.502;9.752;2023-04-19T07:55:18;14.10;99.90
1546;DHT22;766;51.502;9.752;2023-04-19T07:57:46;14.40;99.90
1546;DHT22;766;51.502;9.752;2023-04-19T08:00:15;15.10;99.90
1546;DHT22;766;51.502;9.752;2023-04-19T08:02:44;14.50;99.90
1546;DHT22;766;51.502;9.752;2023-04-19T08:05:13;15.50;99.90
1546;DHT22;766;51.502;9.752;2023-04-19T08:07:45;16.20;99.90
1546;DHT22;766;51.502;9.752;2023-04-19T08:10:14;17.00;99.90
1546;DHT22;766;51.502;9.752;2023-04-19T08:12:42;16.70;99.90
1546;DHT22;766;51.502;9.752;2023-04-19T08:15:31;17.00;99.90
1546;DHT22;766;51.502;9.752;2023-04-19T08:18:04;17.10;99.90
1546;DHT22;766;51.502;9.752;2023-04-19T08:20:33;17.10;99.90
1546;DHT22;766;51.502;9.752;2023-04-19T08:23:04;18.40;99.90
1546;DHT22;766;51.502;9.752;2023-04-19T08:25:48;18.10;99.90
1546;DHT22;766;51.502;9.752;2023-04-19T08:28:23;18.40;99.90
1546;DHT22;766;51.502;9.752;2023-04-19T08:30:54;18.30;99.90
1546;DHT22;766;51.502;9.752;2023-04-19T08:33:23;17.30;98.70
1546;DHT22;766;51.502;9.752;2023-04-19T08:35:54;17.60;99.50
1546;DHT22;766;51.502;9.752;2023-04-19T08:38:27;18.60;99.60
1546;DHT22;766;51.502;9.752;2023-04-19T08:41:03;18.30;99.10
1546;DHT22;766;51.502;9.752;2023-04-19T08:43:34;18.40;96.40
1546;DHT22;766;51.502;9.752;2023-04-19T08:46:07;18.90;97.30
1546;DHT22;766;51.502;9.752;2023-04-19T08:48:36;19.00;96.50
1546;DHT22;766;51.502;9.752;2023-04-19T08:51:05;18.70;96.20
1546;DHT22;766;51.502;9.752;2023-04-19T08:53:36;18.70;97.40
1546;DHT22;766;51.502;9.752;2023-04-19T08:56:09;19.10;97.40
1546;DHT22;766;51.502;9.752;2023-04-19T08:58:53;19.30;98.00
1546;DHT22;766;51.502;9.752;2023-04-19T09:01:42;19.40;93.70
1546;DHT22;766;51.502;9.752;2023-04-19T09:04:13;19.20;95.20
1546;DHT22;766;51.502;9.752;2023-04-19T09:07:03;19.30;93.30
1546;DHT22;766;51.502;9.752;2023-04-19T09:09:33;18.90;94.10
1546;DHT22;766;51.502;9.752;2023-04-19T09:12:17;18.50;92.50
1546;DHT22;766;51.502;9.752;2023-04-19T09:14:46;18.30;91.80
1546;DHT22;766;51.502;9.752;2023-04-19T09:17:28;17.70;92.90
1546;DHT22;766;51.502;9.752;2023-04-19T09:19:57;16.90;94.50
1546;DHT22;766;51.502;9.752;2023-04-19T09:22:26;17.70;95.70
1546;DHT22;766;51.502;9.752;2023-04-19T09:24:57;17.90;92.40
1546;DHT22;766;51.502;9.752;2023-04-19T09:27:30;18.10;92.50
1546;DHT22;766;51.502;9.752;2023-04-19T09:30:00;17.90;94.70
1546;DHT22;766;51.502;9.752;2023-04-19T09:32:42;18.50;93.00
1546;DHT22;766;51.502;9.752;2023-04-19T09:35:12;18.70;91.00
1546;DHT22;766;51.502;9.752;2023-04-19T09:37:41;18.40;90.50
1546;DHT22;766;51.502;9.752;2023-04-19T09:40:24;19.00;90.90
1546;DHT22;766;51.502;9.752;2023-04-19T09:42:54;20.10;91.00
1546;DHT22;766;51.502;9.752;2023-04-19T09:45:25;19.60;92.30
1546;DHT22;766;51.502;9.752;2023-04-19T09:48:01;19.40;89.30
1546;DHT22;766;51.502;9.752;2023-04-19T09:50:30;19.10;88.50
1546;DHT22;766;51.502;9.752;2023-04-19T09:53:09;19.70;87.70
1546;DHT22;766;51.502;9.752;2023-04-19T09:55:40;19.50;84.60
1546;DHT22;766;51.502;9.752;2023-04-19T09:58:27;19.50;88.80
1546;DHT22;766;51.502;9.752;2023-04-19T10:01:13;20.30;86.60
1546;DHT22;766;51.502;9.752;2023-04-19T10:03:44;20.20;83.90
1546;DHT22;766;51.502;9.752;2023-04-19T10:06:16;20.00;83.90
1546;DHT22;766;51.502;9.752;2023-04-19T10:08:49;19.00;85.70
1546;DHT22;766;51.502;9.752;2023-04-19T10:11:26;19.30;86.00
1546;DHT22;766;51.502;9.752;2023-04-19T10:14:00;19.10;87.80
1546;DHT22;766;51.502;9.752;2023-04-19T10:16:31;19.10;88.50
1546;DHT22;766;51.502;9.752;2023-04-19T10:19:03;19.90;89.20
1546;DHT22;766;51.502;9.752;2023-04-19T10:21:34;19.30;89.90
1546;DHT22;766;51.502;9.752;2023-04-19T10:24:03;19.40;88.20
1546;DHT22;766;51.502;9.752;2023-04-19T10:27:06;19.10;88.20
1546;DHT22;766;51.502;9.752;2023-04-19T10:29:57;19.40;87.90
1546;DHT22;766;51.502;9.752;2023-04-19T10:32:26;19.50;89.90
1546;DHT22;766;51.502;9.752;2023-04-19T10:35:01;19.60;84.10
1546;DHT22;766;51.502;9.752;2023-04-19T10:37:31;19.40;85.40
1546;DHT22;766;51.502;9.752;2023-04-19T10:39:59;19.50;84.70
1546;DHT22;766;51.502;9.752;2023-04-19T10:45:34;18.60;84.90
1546;DHT22;766;51.502;9.752;2023-04-19T10:48:04;18.40;87.50
1546;DHT22;766;51.502;9.752;2023-04-19T10:50:56;18.80;87.40
1546;DHT22;766;51.502;9.752;2023-04-19T10:53:57;18.50;85.00
1546;DHT22;766;51.502;9.752;2023-04-19T10:59:38;18.90;88.10
1546;DHT22;766;51.502;9.752;2023-04-19T11:02:28;19.30;86.70
1546;DHT22;766;51.502;9.752;2023-04-19T11:05:01;19.20;88.30
1546;DHT22;766;51.502;9.752;2023-04-19T11:07:40;19.00;85.30
1546;DHT22;766;51.502;9.752;2023-04-19T11:10:10;19.30;86.30
1546;DHT22;766;51.502;9.752;2023-04-19T11:12:42;19.40;85.00
1546;DHT22;766;51.502;9.752;2023-04-19T11:15:11;19.10;83.30
1546;DHT22;766;51.502;9.752;2023-04-19T11:17:41;19.30;84.30
1546;DHT22;766;51.502;9.752;2023-04-19T11:20:10;19.50;84.40
1546;DHT22;766;51.502;9.752;2023-04-19T11:22:42;19.80;85.30
1546;DHT22;766;51.502;9.752;2023-04-19T11:25:11;20.10;80.60
1546;DHT22;766;51.502;9.752;2023-04-19T11:27:40;20.00;81.60
1546;DHT22;766;51.502;9.752;2023-04-19T11:30:10;19.70;82.20
1546;DHT22;766;51.502;9.752;2023-04-19T11:35:52;20.50;80.30
1546;DHT22;766;51.502;9.752;2023-04-19T11:38:21;20.20;78.20
1546;DHT22;766;51.502;9.752;2023-04-19T11:40:57;20.30;78.30
1546;DHT22;766;51.502;9.752;2023-04-19T11:43:31;20.30;74.50
1546;DHT22;766;51.502;9.752;2023-04-19T11:46:04;19.20;75.50
1546;DHT22;766;51.502;9.752;2023-04-19T11:48:33;19.50;76.30
1546;DHT22;766;51.502;9.752;2023-04-19T11:51:03;20.30;76.00
1546;DHT22;766;51.502;9.752;2023-04-19T11:53:32;20.20;69.20
1546;DHT22;766;51.502;9.752;2023-04-19T11:56:04;20.20;72.50
1546;DHT22;766;51.502;9.752;2023-04-19T11:58:36;20.00;70.40
1546;DHT22;766;51.502;9.752;2023-04-19T12:01:07;20.20;67.90
1546;DHT22;766;51.502;9.752;2023-04-19T12:03:40;19.70;70.80
1546;DHT22;766;51.502;9.752;2023-04-19T12:06:12;19.80;72.90
1546;DHT22;766;51.502;9.752;2023-04-19T12:08:43;19.60;71.70
1546;DHT22;766;51.502;9.752;2023-04-19T12:11:12;19.60;70.60
1546;DHT22;766;51.502;9.752;2023-04-19T12:13:41;19.30;71.10
1546;DHT22;766;51.502;9.752;2023-04-19T12:16:11;19.00;68.50
1546;DHT22;766;51.502;9.752;2023-04-19T12:18:44;19.70;70.50
1546;DHT22;766;51.502;9.752;2023-04-19T12:21:24;19.40;65.10
1546;DHT22;766;51.502;9.752;2023-04-19T12:23:54;19.10;63.60
1546;DHT22;766;51.502;9.752;2023-04-19T12:26:23;18.60;66.50
1546;DHT22;766;51.502;9.752;2023-04-19T12:28:53;18.30;67.70
1546;DHT22;766;51.502;9.752;2023-04-19T12:31:21;18.10;66.30
1546;DHT22;766;51.502;9.752;2023-04-19T12:33:49;18.20;64.40
1546;DHT22;766;51.502;9.752;2023-04-19T12:36:24;17.80;64.80
1546;DHT22;766;51.502;9.752;2023-04-19T12:38:57;17.80;68.70
1546;DHT22;766;51.502;9.752;2023-04-19T12:41:26;18.10;70.70
1546;DHT22;766;51.502;9.752;2023-04-19T12:43:54;17.90;66.00
1546;DHT22;766;51.502;9.752;2023-04-19T12:46:25;17.70;67.80
1546;DHT22;766;51.502;9.752;2023-04-19T12:48:54;15.90;68.90
1546;DHT22;766;51.502;9.752;2023-04-19T12:51:23;15.60;70.30
1546;DHT22;766;51.502;9.752;2023-04-19T12:53:52;15.50;74.40
1546;DHT22;766;51.502;9.752;2023-04-19T12:56:22;15.50;76.50
1546;DHT22;766;51.502;9.752;2023-04-19T12:58:50;15.60;77.40
1546;DHT22;766;51.502;9.752;2023-04-19T13:01:19;15.80;76.40
1546;DHT22;766;51.502;9.752;2023-04-19T13:03:47;15.30;72.50
1546;DHT22;766;51.502;9.752;2023-04-19T13:06:16;14.80;76.40
1546;DHT22;766;51.502;9.752;2023-04-19T13:08:45;14.70;75.90
1546;DHT22;766;51.502;9.752;2023-04-19T13:11:15;14.40;78.80
1546;DHT22;766;51.502;9.752;2023-04-19T13:13:50;14.20;79.30
1546;DHT22;766;51.502;9.752;2023-04-19T13:16:19;14.30;79.30
1546;DHT22;766;51.502;9.752;2023-04-19T13:18:48;14.40;82.50
1546;DHT22;766;51.502;9.752;2023-04-19T13:21:18;14.70;82.80
1546;DHT22;766;51.502;9.752;2023-04-19T13:23:46;14.90;80.20
1546;DHT22;766;51.502;9.752;2023-04-19T13:26:17;14.70;78.20
1546;DHT22;766;51.502;9.752;2023-04-19T13:28:45;14.40;79.70
1546;DHT22;766;51.502;9.752;2023-04-19T13:31:13;14.20;81.90
1546;DHT22;766;51.502;9.752;2023-04-19T13:33:42;14.10;78.20
1546;DHT22;766;51.502;9.752;2023-04-19T13:36:10;14.20;79.80
1546;DHT22;766;51.502;9.752;2023-04-19T13:38:38;14.20;74.20
1546;DHT22;766;51.502;9.752;2023-04-19T13:41:07;14.00;71.20
1546;DHT22;766;51.502;9.752;2023-04-19T13:43:37;14.10;70.00
1546;DHT22;766;51.502;9.752;2023-04-19T13:46:08;14.50;74.30
1546;DHT22;766;51.502;9.752;2023-04-19T13:48:37;14.70;71.20
1546;DHT22;766;51.502;9.752;2023-04-19T13:51:05;14.70;70.40
1546;DHT22;766;51.502;9.752;2023-04-19T13:53:34;14.40;70.00
1546;DHT22;766;51.502;9.752;2023-04-19T13:56:02;14.50;71.70
1546;DHT22;766;51.502;9.752;2023-04-19T13:58:33;14.70;70.40
1546;DHT22;766;51.502;9.752;2023-04-19T14:01:02;14.60;71.60
1546;DHT22;766;51.502;9.752;2023-04-19T14:03:31;14.80;75.50
1546;DHT22;766;51.502;9.752;2023-04-19T14:05:59;15.00;75.50
1546;DHT22;766;51.502;9.752;2023-04-19T14:08:27;14.90;72.30
1546;DHT22;766;51.502;9.752;2023-04-19T14:10:56;14.70;71.40
1546;DHT22;766;51.502;9.752;2023-04-19T14:13:24;14.70;70.60
1546;DHT22;766;51.502;9.752;2023-04-19T14:15:52;14.40;70.30
1546;DHT22;766;51.502;9.752;2023-04-19T14:18:22;14.30;72.80
1546;DHT22;766;51.502;9.752;2023-04-19T14:20:51;14.20;72.40
1546;DHT22;766;51.502;9.752;2023-04-19T14:23:19;13.90;73.10
1546;DHT22;766;51.502;9.752;2023-04-19T14:25:47;13.70;71.00
1546;DHT22;766;51.502;9.752;2023-04-19T14:28:16;13.80;71.60
1546;DHT22;766;51.502;9.752;2023-04-19T14:30:44;13.30;70.20
1546;DHT22;766;51.502;9.752;2023-04-19T14:33:12;13.40;74.20
1546;DHT22;766;51.502;9.752;2023-04-19T14:35:43;13.60;74.80
1546;DHT22;766;51.502;9.752;2023-04-19T14:38:11;13.80;74.70
1546;DHT22;766;51.502;9.752;2023-04-19T14:40:39;14.00;74.80
1546;DHT22;766;51.502;9.752;2023-04-19T14:43:10;14.10;76.40
1546;DHT22;766;51.502;9.752;2023-04-19T14:45:38;14.00;74.40
1546;DHT22;766;51.502;9.752;2023-04-19T14:48:06;13.70;75.50
1546;DHT22;766;51.502;9.752;2023-04-19T14:50:35;13.50;74.60
1546;DHT22;766;51.502;9.752;2023-04-19T14:53:04;13.20;74.10
1546;DHT22;766;51.502;9.752;2023-04-19T14:55:32;13.20;77.70
1546;DHT22;766;51.502;9.752;2023-04-19T14:58:01;13.20;79.20
1546;DHT22;766;51.502;9.752;2023-04-19T15:00:29;13.00;77.10
1546;DHT22;766;51.502;9.752;2023-04-19T15:02:57;13.10;76.70
1546;DHT22;766;51.502;9.752;2023-04-19T15:05:27;13.20;78.00
1546;DHT22;766;51.502;9.752;2023-04-19T15:07:55;13.20;80.10
1546;DHT22;766;51.502;9.752;2023-04-19T15:10:25;13.10;79.40
1546;DHT22;766;51.502;9.752;2023-04-19T15:12:54;13.10;78.40
1546;DHT22;766;51.502;9.752;2023-04-19T15:15:22;12.90;80.40
1546;DHT22;766;51.502;9.752;2023-04-19T15:17:50;12.80;82.70
1546;DHT22;766;51.502;9.752;2023-04-19T15:20:19;12.80;81.70
1546;DHT22;766;51.502;9.752;2023-04-19T15:22:52;12.60;82.20
1546;DHT22;766;51.502;9.752;2023-04-19T15:25:21;12.50;81.30
1546;DHT22;766;51.502;9.752;2023-04-19T15:27:51;12.30;82.50
1546;DHT22;766;51.502;9.752;2023-04-19T15:30:19;12.00;84.10
1546;DHT22;766;51.502;9.752;2023-04-19T15:32:47;12.10;85.10
1546;DHT22;766;51.502;9.752;2023-04-19T15:35:16;12.10;84.70
1546;DHT22;766;51.502;9.752;2023-04-19T15:37:46;12.20;82.60
1546;DHT22;766;51.502;9.752;2023-04-19T15:40:14;12.30;86.00
1546;DHT22;766;51.502;9.752;2023-04-19T15:42:43;12.50;85.80
1546;DHT22;766;51.502;9.752;2023-04-19T15:45:25;12.50;85.90
1546;DHT22;766;51.502;9.752;2023-04-19T15:47:54;12.50;86.20
1546;DHT22;766;51.502;9.752;2023-04-19T15:50:23;12.50;86.10
1546;DHT22;766;51.502;9.752;2023-04-19T15:52:51;12.30;85.40
1546;DHT22;766;51.502;9.752;2023-04-19T15:55:19;12.30;86.90
1546;DHT22;766;51.502;9.752;2023-04-19T15:57:47;12.10;88.50
1546;DHT22;766;51.502;9.752;2023-04-19T16:00:19;12.00;85.90
1546;DHT22;766;51.502;9.752;2023-04-19T16:02:47;11.90;87.30
1546;DHT22;766;51.502;9.752;2023-04-19T16:05:16;11.80;89.20
1546;DHT22;766;51.502;9.752;2023-04-19T16:07:45;11.80;87.20
1546;DHT22;766;51.502;9.752;2023-04-19T16:10:13;11.70;86.90
1546;DHT22;766;51.502;9.752;2023-04-19T16:12:42;11.80;86.20
1546;DHT22;766;51.502;9.752;2023-04-19T16:15:11;11.60;87.90
1546;DHT22;766;51.502;9.752;2023-04-19T16:17:41;11.40;88.00
1546;DHT22;766;51.502;9.752;2023-04-19T16:20:10;11.30;87.90
1546;DHT22;766;51.502;9.752;2023-04-19T16:22:42;11.30;90.00
1546;DHT22;766;51.502;9.752;2023-04-19T16:25:10;11.50;89.80
1546;DHT22;766;51.502;9.752;2023-04-19T16:27:41;11.50;90.70
1546;DHT22;766;51.502;9.752;2023-04-19T16:30:11;11.60;89.70
1546;DHT22;766;51.502;9.752;2023-04-19T16:32:43;11.50;89.70
1546;DHT22;766;51.502;9.752;2023-04-19T16:35:11;11.40;90.40
1546;DHT22;766;51.502;9.752;2023-04-19T16:37:39;11.50;90.80
1546;DHT22;766;51.502;9.752;2023-04-19T16:40:09;11.40;91.00
1546;DHT22;766;51.502;9.752;2023-04-19T16:42:38;11.40;90.10
1546;DHT22;766;51.502;9.752;2023-04-19T16:45:07;11.50;90.50
1546;DHT22;766;51.502;9.752;2023-04-19T16:47:36;11.30;91.60
1546;DHT22;766;51.502;9.752;2023-04-19T16:50:06;11.30;91.00
1546;DHT22;766;51.502;9.752;2023-04-19T16:52:35;11.30;92.10
1546;DHT22;766;51.502;9.752;2023-04-19T16:55:03;11.10;92.10
1546;DHT22;766;51.502;9.752;2023-04-19T16:57:32;10.90;91.70
1546;DHT22;766;51.502;9.752;2023-04-19T17:00:01;10.90;91.50
1546;DHT22;766;51.502;9.752;2023-04-19T17:02:31;11.00;91.30